Time;durP1;ratioP1;P1;durP2;ratioP2;P2;SDS_P1;SDS_P2;PMS_P1;PMS_P2;Temp;Humidity;BMP_temperature;BMP_pressure;BME280_temperature;BME280_humidity;BME280_pressure;Samples;Min_cycle;Max_cycle;Signal;HPM_P1;HPM_P2
2023/09/02 00:04:09;;;;;;;4.25;3.00;;;;;;;17.34;82.89;100694.53;10447802;28;20037;-67
2023/09/02 00:09:12;;;;;;;5.03;3.17;;;;;;;17.30;82.69;100682.47;10447289;28;20443;-68
2023/09/02 00:14:15;;;;;;;4.47;3.28;;;;;;;17.18;83.69;100691.41;10447109;28;20474;-67
2023/09/02 00:19:17;;;;;;;4.95;3.00;;;;;;;17.10;85.55;100695.00;10445156;28;20041;-68
2023/09/02 00:24:20;;;;;;;3.85;3.20;;;;;;;17.14;85.55;100687.66;10446343;28;20049;-67
2023/09/02 00:29:22;;;;;;;5.47;3.53;;;;;;;17.03;87.86;100700.22;10446188;28;20395;-67
2023/09/02 00:34:25;;;;;;;3.35;3.00;;;;;;;16.96;89.94;100706.22;10446241;28;20405;-67
2023/09/02 00:39:28;;;;;;;5.78;3.67;;;;;;;16.88;90.97;100709.81;10445400;28;20085;-68
2023/09/02 00:44:30;;;;;;;6.18;3.47;;;;;;;16.69;91.12;100703.72;10428308;28;20037;-68
2023/09/02 00:49:32;;;;;;;5.20;3.53;;;;;;;16.57;93.22;100698.72;10446137;28;20037;-67
2023/09/02 00:54:35;;;;;;;5.25;3.60;;;;;;;16.51;93.40;100700.03;10445269;28;20041;-68
2023/09/02 00:59:38;;;;;;;4.38;3.10;;;;;;;16.53;92.47;100690.25;10445082;28;20037;-67
2023/09/02 01:04:40;;;;;;;6.93;3.80;;;;;;;16.61;92.08;100694.19;10444139;28;20045;-67
2023/09/02 01:09:45;;;;;;;4.65;3.60;;;;;;;16.52;93.22;100694.16;10427435;28;20057;-68
2023/09/02 01:14:47;;;;;;;6.50;4.13;;;;;;;16.54;93.12;100693.84;10445686;28;20044;-68
2023/09/02 01:19:56;;;;;;;9.35;4.07;;;;;;;16.44;94.24;100692.16;10444488;28;20046;-68
2023/09/02 01:25:28;;;;;;;4.47;3.00;;;;;;;16.48;95.32;100689.56;10427751;28;20041;-68
2023/09/02 01:30:33;;;;;;;5.07;3.33;;;;;;;16.26;96.30;100677.41;10442989;28;20057;-68
2023/09/02 01:35:38;;;;;;;2.95;2.65;;;;;;;16.22;96.43;100684.72;10443005;28;20038;-68
2023/09/02 01:40:42;;;;;;;4.93;3.13;;;;;;;16.21;96.79;100673.97;10426039;28;20061;-68
2023/09/02 01:45:45;;;;;;;3.83;2.80;;;;;;;16.08;97.14;100672.09;10443000;28;20411;-68
2023/09/02 01:50:48;;;;;;;4.88;2.83;;;;;;;16.04;97.29;100674.69;10442772;28;20045;-68
2023/09/02 01:55:50;;;;;;;6.07;2.83;;;;;;;16.09;98.50;100673.72;10443500;28;20037;-68
2023/09/02 02:00:53;;;;;;;4.63;3.08;;;;;;;16.07;98.46;100662.16;10441666;28;20507;-68
2023/09/02 02:05:58;;;;;;;5.72;3.05;;;;;;;16.03;98.74;100661.16;10442020;28;20042;-68
2023/09/02 02:11:01;;;;;;;3.88;3.00;;;;;;;16.10;99.90;100667.06;10425071;28;20037;-68
2023/09/02 02:16:04;;;;;;;4.00;3.13;;;;;;;16.23;100.00;100666.16;10442655;28;20037;-68
2023/09/02 02:21:07;;;;;;;6.70;3.30;;;;;;;16.24;100.00;100646.47;10442598;28;20045;-68
2023/09/02 02:26:09;;;;;;;5.82;3.15;;;;;;;16.23;100.00;100658.66;10443265;28;20519;-68
2023/09/02 02:31:11;;;;;;;4.88;3.33;;;;;;;16.26;99.43;100648.91;10442960;28;20049;-68
2023/09/02 02:36:14;;;;;;;3.53;2.90;;;;;;;16.46;96.61;100645.56;10441727;28;20041;-68
2023/09/02 02:41:16;;;;;;;4.05;2.72;;;;;;;16.56;92.62;100648.06;10442251;28;20055;-68
2023/09/02 02:46:18;;;;;;;5.65;2.58;;;;;;;16.53;91.36;100651.47;10425076;28;20044;-68
2023/09/02 02:51:20;;;;;;;6.45;2.60;;;;;;;16.44;92.03;100647.84;10442402;28;20074;-68
2023/09/02 02:56:23;;;;;;;3.80;2.60;;;;;;;16.69;89.77;100649.09;10440652;28;20060;-68
2023/09/02 03:01:25;;;;;;;4.88;2.85;;;;;;;16.73;90.70;100663.13;10441159;28;20045;-68
2023/09/02 03:06:28;;;;;;;3.45;2.95;;;;;;;16.67;92.43;100667.19;10448477;28;20503;-68
2023/09/02 03:11:30;;;;;;;7.07;3.20;;;;;;;16.62;95.00;100679.19;10448526;28;20385;-68
2023/09/02 03:16:34;;;;;;;6.40;3.83;;;;;;;16.51;95.99;100687.00;10431997;28;20052;-68
2023/09/02 03:21:36;;;;;;;4.18;3.45;;;;;;;16.49;96.14;100697.56;10447228;28;20048;-68
2023/09/02 03:26:38;;;;;;;4.50;3.17;;;;;;;16.60;95.45;100695.31;10448002;28;20510;-68
2023/09/02 03:31:41;;;;;;;5.03;3.20;;;;;;;16.57;95.24;100688.47;10447079;28;20045;-68
2023/09/02 03:36:45;;;;;;;6.72;3.60;;;;;;;16.64;94.53;100696.31;10446924;28;20068;-68
2023/09/02 03:41:47;;;;;;;5.05;3.75;;;;;;;16.55;95.40;100695.47;10447182;28;20068;-68
2023/09/02 03:46:50;;;;;;;6.03;3.88;;;;;;;16.62;94.92;100689.44;10447482;28;20063;-68
2023/09/02 03:51:53;;;;;;;5.47;3.67;;;;;;;16.49;93.60;100702.28;10446955;28;20064;-68
2023/09/02 03:56:55;;;;;;;4.95;3.85;;;;;;;16.53;93.11;100709.66;10446417;28;20041;-68
2023/09/02 04:01:57;;;;;;;5.10;3.45;;;;;;;16.58;92.51;100706.72;10446083;28;20049;-68
2023/09/02 04:06:59;;;;;;;4.68;3.45;;;;;;;16.60;93.19;100703.63;10447390;28;20042;-68
2023/09/02 04:12:02;;;;;;;5.05;3.65;;;;;;;16.77;93.59;100708.44;10447574;28;20033;-68
2023/09/02 04:17:04;;;;;;;4.53;3.08;;;;;;;16.76;92.14;100706.81;10428886;28;20523;-68
2023/09/02 04:22:07;;;;;;;4.90;3.10;;;;;;;16.86;92.10;100712.91;10445080;28;20068;-68
2023/09/02 04:27:10;;;;;;;5.43;3.97;;;;;;;16.93;91.77;100715.19;10445582;28;20049;-68
2023/09/02 04:32:12;;;;;;;5.13;3.53;;;;;;;17.07;90.02;100724.19;10446511;28;20041;-68
2023/09/02 04:37:16;;;;;;;3.80;2.83;;;;;;;17.14;86.85;100718.16;10429017;28;20037;-68
2023/09/02 04:42:18;;;;;;;4.00;2.88;;;;;;;17.53;83.50;100720.03;10444556;28;20061;-68
2023/09/02 04:47:23;;;;;;;6.60;3.35;;;;;;;17.80;81.51;100712.53;10444573;28;20033;-68
2023/09/02 04:52:25;;;;;;;4.10;3.53;;;;;;;18.18;78.92;100727.31;10427523;28;20527;-68
2023/09/02 04:57:28;;;;;;;4.07;3.17;;;;;;;19.09;76.37;100730.75;10445318;28;20040;-68
2023/09/02 05:02:30;;;;;;;6.10;3.25;;;;;;;19.22;73.90;100738.03;10427429;28;20041;-68
2023/09/02 05:07:32;;;;;;;4.85;3.20;;;;;;;18.89;74.56;100737.91;10443523;28;20060;-68
2023/09/02 05:12:36;;;;;;;4.03;3.10;;;;;;;18.59;74.18;100739.81;10444825;28;20052;-68
2023/09/02 05:17:38;;;;;;;4.43;3.15;;;;;;;18.86;75.33;100746.91;10427515;28;20653;-68
2023/09/02 05:22:41;;;;;;;7.13;3.90;;;;;;;19.16;73.60;100740.22;10443607;28;20080;-68
2023/09/02 05:27:47;;;;;;;5.72;2.75;;;;;;;20.60;67.64;100739.63;10426397;28;20104;-68
2023/09/02 05:32:49;;;;;;;4.82;3.05;;;;;;;21.42;65.02;100741.53;10444356;28;20415;-68
2023/09/02 05:37:52;;;;;;;6.20;2.72;;;;;;;20.14;67.11;100741.59;10444935;28;20033;-68
2023/09/02 05:42:54;;;;;;;5.07;3.08;;;;;;;19.67;69.65;100740.22;10443606;28;20049;-66
2023/09/02 05:47:56;;;;;;;3.95;2.83;;;;;;;20.73;66.22;100744.06;10444115;28;20049;-67
2023/09/02 05:52:59;;;;;;;4.20;2.45;;;;;;;21.67;64.09;100754.25;10443112;28;20044;-67
2023/09/02 05:58:01;;;;;;;3.40;2.60;;;;;;;21.18;63.76;100754.31;10444246;28;20075;-67
2023/09/02 06:03:03;;;;;;;2.72;2.20;;;;;;;21.35;63.88;100756.91;10442633;28;20038;-67
2023/09/02 06:08:06;;;;;;;4.25;2.60;;;;;;;20.90;64.60;100756.97;10425180;28;20064;-67
2023/09/02 06:13:08;;;;;;;3.85;2.47;;;;;;;20.75;65.09;100755.69;10442732;28;20038;-67
2023/09/02 06:18:10;;;;;;;2.80;2.50;;;;;;;20.07;67.91;100760.81;10441775;28;20045;-67
2023/09/02 06:23:13;;;;;;;3.20;2.80;;;;;;;19.36;69.70;100766.44;10442656;28;20056;-67
2023/09/02 06:28:15;;;;;;;3.25;2.30;;;;;;;19.18;67.98;100768.50;10443538;28;20045;-67
2023/09/02 06:33:20;;;;;;;4.93;2.30;;;;;;;18.46;69.93;100766.66;10442208;28;20495;-67
2023/09/02 06:38:27;;;;;;;3.35;2.20;;;;;;;18.93;68.99;100766.69;10428647;28;20045;-67
2023/09/02 06:43:30;;;;;;;4.15;2.45;;;;;;;19.86;66.72;100760.03;10448522;28;20057;-67
2023/09/02 06:48:32;;;;;;;2.83;2.17;;;;;;;20.31;64.10;100764.88;10450209;28;20049;-68
2023/09/02 06:53:34;;;;;;;2.92;2.33;;;;;;;20.45;62.56;100770.97;10448553;28;20041;-68
2023/09/02 06:58:38;;;;;;;3.17;2.75;;;;;;;20.43;62.82;100776.06;10448347;28;20045;-67
2023/09/02 07:03:41;;;;;;;3.20;2.63;;;;;;;20.31;64.47;100776.03;10414947;28;20431;-67
2023/09/02 07:08:43;;;;;;;2.92;2.47;;;;;;;20.45;63.02;100782.13;10444598;28;20175;-67
2023/09/02 07:13:52;;;;;;;2.63;2.30;;;;;;;21.44;60.54;100778.28;10449223;28;20041;-68
2023/09/02 07:18:54;;;;;;;3.03;2.50;;;;;;;21.14;60.16;100781.28;10449598;28;20038;-68
2023/09/02 07:23:57;;;;;;;121.70;45.22;;;;;;;20.85;61.37;100785.13;10434895;28;20057;-68
2023/09/02 07:28:59;;;;;;;42.92;14.15;;;;;;;21.00;61.21;100780.81;10408176;28;20392;-68
2023/09/02 07:34:02;;;;;;;33.13;13.23;;;;;;;22.37;57.35;100767.84;10422375;28;20048;-67
2023/09/02 07:39:04;;;;;;;8.90;4.25;;;;;;;22.85;54.55;100780.75;10422072;28;20416;-68
2023/09/02 07:44:08;;;;;;;8.18;4.38;;;;;;;23.59;51.04;100787.38;10406155;28;20053;-68
2023/09/02 07:49:15;;;;;;;3.25;2.15;;;;;;;22.90;51.61;100782.47;10406165;28;20448;-67
2023/09/02 07:54:18;;;;;;;5.90;2.80;;;;;;;22.88;51.66;100782.81;10406672;28;20054;-67
2023/09/02 07:59:20;;;;;;;8.90;3.97;;;;;;;24.12;49.55;100770.88;10421674;28;20050;-67
2023/09/02 08:04:23;;;;;;;6.43;3.25;;;;;;;25.45;47.37;100780.50;10409893;28;20059;-68
2023/09/02 08:09:25;;;;;;;7.25;3.40;;;;;;;25.39;45.90;100782.81;10405135;28;20041;-68
2023/09/02 08:14:27;;;;;;;4.55;2.72;;;;;;;23.53;49.05;100788.00;10404780;28;20046;-68
2023/09/02 08:19:31;;;;;;;5.68;2.97;;;;;;;22.14;52.42;100790.78;10405655;28;20046;-68
2023/09/02 08:24:33;;;;;;;10.68;4.32;;;;;;;21.68;53.32;100797.75;10405319;28;20509;-68
2023/09/02 08:29:35;;;;;;;3.20;1.90;;;;;;;22.45;51.19;100790.06;10408604;28;20093;-67
2023/09/02 08:34:38;;;;;;;5.70;2.67;;;;;;;23.03;49.94;100798.00;10387361;28;20428;-67
2023/09/02 08:39:40;;;;;;;6.43;2.80;;;;;;;22.89;51.34;100798.44;10405838;28;20420;-67
2023/09/02 08:44:44;;;;;;;6.20;2.17;;;;;;;24.13;46.84;100797.75;10408962;28;20045;-68
2023/09/02 08:49:49;;;;;;;5.10;2.53;;;;;;;25.06;45.43;100805.97;10403493;28;20042;-68
2023/09/02 08:54:51;;;;;;;2.67;1.98;;;;;;;23.08;47.65;100812.56;10403160;28;20034;-68
2023/09/02 08:59:54;;;;;;;3.42;2.15;;;;;;;23.91;45.75;100804.06;10403415;28;20037;-67
2023/09/02 09:04:58;;;;;;;3.65;1.88;;;;;;;25.11;44.96;100802.03;10419614;28;20038;-67
2023/09/02 09:10:00;;;;;;;1.33;1.23;;;;;;;23.35;46.12;100818.38;10386881;28;20041;-67
2023/09/02 09:15:03;;;;;;;1.85;1.50;;;;;;;22.85;45.12;100806.75;10386213;28;20037;-67
2023/09/02 09:20:05;;;;;;;1.80;1.60;;;;;;;22.22;46.32;100792.63;10403328;28;20041;-67
2023/09/02 09:25:08;;;;;;;2.30;1.50;;;;;;;20.75;50.17;100808.69;10402855;28;20054;-68
2023/09/02 09:30:30;;;;;;;1.20;1.05;;;;;;;20.75;50.29;100814.25;10403386;28;20589;-67
2023/09/02 09:35:33;;;;;;;2.13;1.30;;;;;;;20.27;48.67;100808.50;10461137;28;20557;-68
2023/09/02 09:40:38;;;;;;;1.80;1.23;;;;;;;20.49;49.21;100818.50;10451401;28;20190;-67
2023/09/02 09:45:51;;;;;;;3.42;1.40;;;;;;;21.09;49.29;100826.16;10443224;28;20041;-67
2023/09/02 09:50:55;;;;;;;1.30;1.20;;;;;;;20.34;48.52;100825.50;10461012;28;20033;-68
2023/09/02 09:56:02;;;;;;;1.65;1.02;;;;;;;20.26;48.49;100826.38;10483481;28;20491;-67
2023/09/02 10:01:04;;;;;;;2.03;1.20;;;;;;;20.74;47.88;100823.78;10483374;28;20083;-67
2023/09/02 10:06:07;;;;;;;1.30;1.17;;;;;;;20.79;47.40;100828.31;10484892;28;20057;-67
2023/09/02 10:11:21;;;;;;;0.55;0.55;;;;;;;20.11;47.40;100814.69;10483540;28;20036;-67
2023/09/02 10:16:25;;;;;;;1.58;1.20;;;;;;;20.42;47.86;100825.44;10492011;28;20764;-68
2023/09/02 10:21:29;;;;;;;1.20;1.10;;;;;;;20.35;47.65;100824.34;10492958;28;20048;-68
2023/09/02 10:26:37;;;;;;;1.00;0.90;;;;;;;20.40;47.09;100816.56;10491104;28;20044;-68
2023/09/02 10:31:42;;;;;;;2.13;1.38;;;;;;;20.84;45.62;100822.53;10492478;28;20045;-68
2023/09/02 10:36:57;;;;;;;1.40;1.20;;;;;;;20.70;44.24;100822.84;10483299;28;20040;-68
2023/09/02 10:42:00;;;;;;;2.63;1.10;;;;;;;20.24;44.74;100832.28;10409049;28;20057;-68
2023/09/02 10:47:03;;;;;;;0.98;0.90;;;;;;;20.54;44.47;100832.22;10409850;28;20037;-68
2023/09/02 10:52:05;;;;;;;1.30;1.10;;;;;;;20.56;45.11;100835.47;10408264;28;20041;-67
2023/09/02 10:57:15;;;;;;;1.25;1.00;;;;;;;20.96;44.00;100832.88;10409123;28;20045;-68
2023/09/02 11:02:37;;;;;;;2.00;1.25;;;;;;;20.42;44.91;100825.44;10407626;28;20523;-68
2023/09/02 11:07:41;;;;;;;1.63;1.15;;;;;;;20.77;43.58;100837.03;10407169;28;20045;-68
2023/09/02 11:13:09;;;;;;;0.90;0.70;;;;;;;20.62;44.01;100840.47;10394276;28;20041;-67
2023/09/02 11:18:27;;;;;;;2.22;1.00;;;;;;;20.38;45.27;100835.63;10411038;28;20042;-67
2023/09/02 11:23:32;;;;;;;0.63;0.63;;;;;;;20.58;45.34;100827.56;10406454;28;20046;-67
2023/09/02 11:28:35;;;;;;;2.57;1.40;;;;;;;20.74;44.86;100832.16;10407316;28;20041;-67
2023/09/02 11:33:39;;;;;;;1.73;1.00;;;;;;;20.40;45.83;100833.28;10407572;28;20038;-68
2023/09/02 11:38:42;;;;;;;1.30;1.20;;;;;;;20.77;46.02;100822.28;10406938;28;20041;-67
2023/09/02 11:43:44;;;;;;;2.25;0.80;;;;;;;20.93;45.02;100836.38;10407511;28;20058;-68
2023/09/02 11:48:46;;;;;;;1.00;0.90;;;;;;;20.94;46.27;100835.22;10407019;28;20048;-67
2023/09/02 11:53:49;;;;;;;1.80;1.00;;;;;;;21.04;46.57;100831.97;10407642;28;20052;-68
2023/09/02 11:58:51;;;;;;;2.40;1.02;;;;;;;21.05;46.83;100848.38;10407061;28;20045;-68
2023/09/02 12:03:54;;;;;;;1.70;1.10;;;;;;;20.71;46.86;100849.59;10407782;28;20054;-69
2023/09/02 12:08:57;;;;;;;1.42;0.98;;;;;;;20.55;48.36;100848.59;10388848;28;20041;-68
2023/09/02 12:13:59;;;;;;;4.28;1.55;;;;;;;20.80;47.81;100849.47;10405079;28;20048;-68
2023/09/02 12:19:01;;;;;;;1.77;1.15;;;;;;;20.70;48.51;100850.75;10388559;28;20049;-67
2023/09/02 12:24:04;;;;;;;1.35;1.00;;;;;;;20.92;48.58;100866.25;10405352;28;20045;-67
2023/09/02 12:29:16;;;;;;;2.33;0.77;;;;;;;21.16;48.33;100845.94;10388043;28;20393;-68
2023/09/02 12:34:18;;;;;;;1.30;1.20;;;;;;;21.13;48.81;100855.00;10387420;28;20045;-68
2023/09/02 12:39:22;;;;;;;0.82;0.80;;;;;;;20.83;50.16;100853.56;10404079;28;20057;-67
2023/09/02 12:44:25;;;;;;;2.17;1.10;;;;;;;20.77;49.96;100850.16;10406036;28;20492;-67
2023/09/02 12:49:27;;;;;;;1.40;1.20;;;;;;;20.85;50.30;100856.81;10405946;28;20072;-68
2023/09/02 12:54:29;;;;;;;6.45;1.48;;;;;;;20.97;49.53;100860.44;10403440;28;20046;-68
2023/09/02 12:59:31;;;;;;;1.10;1.00;;;;;;;20.87;50.42;100857.28;10402463;28;20160;-69
2023/09/02 13:04:35;;;;;;;2.75;1.60;;;;;;;20.93;49.95;100861.47;10405012;28;20508;-68
2023/09/02 13:09:39;;;;;;;1.75;1.23;;;;;;;20.85;49.71;100856.81;10402863;28;20393;-67
2023/09/02 13:14:42;;;;;;;1.88;1.17;;;;;;;20.77;50.81;100864.13;10403843;28;20045;-68
2023/09/02 13:19:46;;;;;;;1.77;1.30;;;;;;;20.81;50.96;100867.84;10406808;28;20040;-68
2023/09/02 13:24:50;;;;;;;1.25;0.82;;;;;;;20.71;51.23;100869.09;10403680;28;20049;-68
2023/09/02 13:29:52;;;;;;;1.33;1.10;;;;;;;20.59;51.68;100857.91;10403521;28;20435;-69
2023/09/02 13:35:15;;;;;;;1.02;0.80;;;;;;;20.53;51.74;100864.84;10433789;28;20044;-68
2023/09/02 13:40:18;;;;;;;1.77;1.52;;;;;;;20.55;52.63;100867.31;10442781;28;20061;-68
2023/09/02 13:45:27;;;;;;;2.40;1.42;;;;;;;20.57;52.08;100871.38;10443754;28;20041;-69
2023/09/02 13:50:29;;;;;;;2.40;1.15;;;;;;;20.41;52.65;100882.34;10442633;28;20065;-68
2023/09/02 13:55:39;;;;;;;2.13;1.10;;;;;;;20.24;52.10;100874.09;10430170;28;20060;-68
2023/09/02 14:00:41;;;;;;;1.35;1.02;;;;;;;20.22;52.75;100873.63;10400894;28;20052;-68
2023/09/02 14:05:46;;;;;;;2.47;1.10;;;;;;;20.26;53.00;100880.13;10402766;28;20054;-67
2023/09/02 14:10:49;;;;;;;1.55;1.02;;;;;;;20.21;54.00;100885.13;10405138;28;20449;-68
2023/09/02 14:15:52;;;;;;;1.77;0.85;;;;;;;20.26;53.87;100882.13;10400739;28;20045;-68
2023/09/02 14:20:54;;;;;;;2.20;1.00;;;;;;;20.23;53.70;100882.78;10417700;28;20045;-68
2023/09/02 14:25:56;;;;;;;1.08;1.02;;;;;;;20.31;54.15;100881.94;10401704;28;20042;-68
2023/09/02 14:30:58;;;;;;;2.70;1.20;;;;;;;20.26;53.72;100885.72;10405976;28;20156;-70
2023/09/02 14:36:02;;;;;;;1.92;1.17;;;;;;;20.29;53.96;100893.38;10426629;28;20056;-68
2023/09/02 14:41:04;;;;;;;2.70;1.58;;;;;;;20.23;53.90;100896.72;10440133;28;20061;-69
2023/09/02 14:46:08;;;;;;;2.03;1.40;;;;;;;20.15;54.05;100899.25;10404671;28;20642;-68
2023/09/02 14:51:10;;;;;;;1.42;1.10;;;;;;;20.01;55.50;100884.78;10401446;28;20050;-68
2023/09/02 14:56:12;;;;;;;1.15;1.05;;;;;;;20.05;54.97;100896.88;10383579;28;20042;-68
2023/09/02 15:01:14;;;;;;;2.10;1.45;;;;;;;20.14;54.87;100886.47;10435587;28;20037;-69
2023/09/02 15:06:17;;;;;;;1.25;1.15;;;;;;;20.26;55.31;100890.47;10442482;28;20048;-68
2023/09/02 15:11:19;;;;;;;2.13;1.27;;;;;;;20.12;55.50;100908.28;10417959;28;20037;-68
2023/09/02 15:16:21;;;;;;;3.00;1.33;;;;;;;20.33;54.92;100910.28;10448890;28;20045;-69
2023/09/02 15:21:24;;;;;;;1.55;1.27;;;;;;;20.48;54.71;100915.25;10447371;28;20080;-68
2023/09/02 15:26:26;;;;;;;1.90;1.38;;;;;;;20.23;55.37;100913.44;10430956;28;20076;-69
2023/09/02 15:31:29;;;;;;;0.88;0.73;;;;;;;20.03;55.75;100904.75;10446988;28;20041;-68
2023/09/02 15:36:33;;;;;;;1.85;1.45;;;;;;;19.93;56.97;100912.66;10446975;28;20038;-68
2023/09/02 15:41:39;;;;;;;3.75;1.42;;;;;;;20.01;56.46;100911.81;10446386;28;20042;-68
2023/09/02 15:46:42;;;;;;;1.23;1.10;;;;;;;19.87;57.15;100912.06;10448009;28;20041;-68
2023/09/02 15:51:44;;;;;;;1.60;1.30;;;;;;;19.84;57.99;100916.34;10447627;28;20538;-68
2023/09/02 15:56:47;;;;;;;1.35;1.17;;;;;;;19.83;58.18;100922.25;10448382;28;20037;-69
2023/09/02 16:01:50;;;;;;;2.00;1.02;;;;;;;19.71;58.08;100927.72;10447395;28;20400;-68
2023/09/02 16:06:52;;;;;;;2.15;1.90;;;;;;;19.63;58.60;100921.06;10447418;28;20491;-68
2023/09/02 16:11:55;;;;;;;3.22;1.40;;;;;;;19.73;58.20;100917.06;10446560;28;20045;-68
2023/09/02 16:17:01;;;;;;;4.10;1.60;;;;;;;19.69;58.74;100921.66;10445569;28;20044;-68
2023/09/02 16:22:04;;;;;;;;;;;;;;;19.52;59.04;100917.78;10445914;28;20042;-68
2023/09/02 16:27:07;;;;;;;1.98;1.40;;;;;;;19.38;59.60;100931.09;10445156;28;20317;-67
2023/09/02 16:32:10;;;;;;;2.90;1.25;;;;;;;19.36;59.23;100922.28;10446148;28;20041;-67
2023/09/02 16:37:14;;;;;;;2.20;1.38;;;;;;;19.28;59.84;100925.91;10446096;28;20159;-67
2023/09/02 16:42:16;;;;;;;1.48;1.30;;;;;;;19.32;59.75;100928.84;10444059;28;20049;-67
2023/09/02 16:47:23;;;;;;;1.60;1.50;;;;;;;19.27;60.21;100932.63;10445679;28;20044;-67
2023/09/02 16:52:25;;;;;;;3.20;1.55;;;;;;;19.32;61.23;100940.78;10445160;28;20045;-68
2023/09/02 16:57:28;;;;;;;1.77;1.10;;;;;;;19.30;59.92;100943.09;10445028;28;20041;-67
2023/09/02 17:02:33;;;;;;;2.40;1.55;;;;;;;19.24;60.41;100955.53;10429407;28;20049;-67
2023/09/02 17:07:35;;;;;;;1.92;1.75;;;;;;;19.18;61.37;100941.00;10402554;28;20048;-67
2023/09/02 17:12:41;;;;;;;2.08;1.27;;;;;;;19.17;61.53;100961.63;10404125;28;20500;-67
2023/09/02 17:17:48;;;;;;;1.45;1.25;;;;;;;19.34;61.12;100963.53;10404248;28;20046;-67
2023/09/02 17:22:50;;;;;;;0.60;0.60;;;;;;;19.40;61.56;100959.41;10402616;28;20045;-67
2023/09/02 17:27:54;;;;;;;1.58;1.10;;;;;;;19.31;59.81;100972.56;10402256;28;20504;-67
2023/09/02 17:32:56;;;;;;;1.30;1.02;;;;;;;19.11;59.99;100974.06;10372362;28;20042;-69
2023/09/02 17:37:59;;;;;;;1.23;1.10;;;;;;;19.05;60.61;100978.16;10402757;28;20139;-68
2023/09/02 17:43:01;;;;;;;1.95;1.30;;;;;;;18.93;60.90;100972.47;10402196;28;20522;-68
2023/09/02 17:48:05;;;;;;;2.65;1.50;;;;;;;18.91;61.49;100972.78;10403106;28;20049;-68
2023/09/02 17:53:07;;;;;;;1.85;1.40;;;;;;;18.84;61.06;100974.44;10402351;28;20041;-68
2023/09/02 17:58:09;;;;;;;2.17;1.40;;;;;;;18.89;60.71;100988.97;10402343;28;20034;-68
2023/09/02 18:03:11;;;;;;;1.25;1.15;;;;;;;18.80;60.79;100988.19;10402138;28;20068;-68
2023/09/02 18:08:14;;;;;;;1.60;1.02;;;;;;;18.71;60.22;101004.03;10405154;28;20046;-68
2023/09/02 18:13:16;;;;;;;1.00;0.90;;;;;;;18.49;60.79;100993.88;10402343;28;20052;-68
2023/09/02 18:18:18;;;;;;;1.35;1.08;;;;;;;18.52;60.40;101000.72;10402393;28;20049;-67
2023/09/02 18:23:20;;;;;;;3.35;1.15;;;;;;;18.51;61.05;100999.91;10401575;28;20046;-67
2023/09/02 18:28:22;;;;;;;1.30;1.02;;;;;;;18.52;62.01;100997.94;10416996;28;20077;-68
2023/09/02 18:33:25;;;;;;;3.88;1.25;;;;;;;18.25;62.48;101001.84;10403779;28;20045;-67
2023/09/02 18:38:28;;;;;;;1.80;1.02;;;;;;;18.23;63.25;101012.47;10409671;28;20042;-68
2023/09/02 18:43:30;;;;;;;2.00;1.30;;;;;;;18.20;63.75;101008.34;10409823;28;20400;-68
2023/09/02 18:48:33;;;;;;;1.27;0.95;;;;;;;18.17;64.05;101011.78;10409811;28;20061;-68
2023/09/02 18:53:35;;;;;;;2.25;1.33;;;;;;;18.33;63.04;101010.19;10409006;28;20068;-67
2023/09/02 18:58:43;;;;;;;1.73;1.30;;;;;;;18.38;63.36;101006.44;10409197;28;20125;-68
2023/09/02 19:03:45;;;;;;;2.22;1.38;;;;;;;18.37;64.42;101011.16;10409930;28;20061;-68
2023/09/02 19:08:47;;;;;;;2.30;1.15;;;;;;;18.10;64.48;101017.00;10408256;28;20044;-68
2023/09/02 19:13:50;;;;;;;2.28;1.23;;;;;;;18.31;64.19;101026.38;10408749;28;20050;-68
2023/09/02 19:18:57;;;;;;;3.50;1.40;;;;;;;18.24;64.28;101017.69;10408245;28;20500;-68
2023/09/02 19:23:59;;;;;;;;;;;;;;;18.08;64.42;101017.34;10411423;28;20033;-68
2023/09/02 19:29:01;;;;;;;3.85;1.60;;;;;;;18.27;64.49;101022.59;10407936;28;19928;-68
2023/09/02 19:34:03;;;;;;;3.42;1.98;;;;;;;18.14;64.62;101020.78;10407276;28;20034;-69
2023/09/02 19:39:16;;;;;;;2.55;1.73;;;;;;;18.15;65.18;101014.06;10405534;28;20053;-69
2023/09/02 19:44:19;;;;;;;4.63;2.13;;;;;;;18.13;65.25;101016.34;10405833;28;20050;-68
2023/09/02 19:49:22;;;;;;;2.45;1.67;;;;;;;18.08;65.28;101010.97;10422201;28;20037;-69
2023/09/02 19:54:24;;;;;;;4.47;1.98;;;;;;;18.10;65.47;101025.34;10406812;28;20041;-68
2023/09/02 19:59:27;;;;;;;3.20;2.20;;;;;;;17.81;66.45;101033.38;10407126;28;20045;-68
2023/09/02 20:04:29;;;;;;;5.28;2.15;;;;;;;17.83;66.66;101026.38;10406202;28;20508;-68
2023/09/02 20:09:31;;;;;;;4.53;2.13;;;;;;;17.81;66.47;101031.44;10405842;28;20045;-68
2023/09/02 20:14:34;;;;;;;2.97;1.95;;;;;;;17.84;66.55;101047.44;10404483;28;20045;-68
2023/09/02 20:19:39;;;;;;;3.72;1.92;;;;;;;17.88;66.75;101036.53;10405320;28;20044;-68
2023/09/02 20:24:42;;;;;;;6.53;2.00;;;;;;;17.97;66.14;101037.38;10405882;28;20042;-68
2023/09/02 20:29:44;;;;;;;4.20;2.60;;;;;;;17.62;66.74;101042.75;10405176;28;20057;-68
2023/09/02 20:34:46;;;;;;;2.90;2.35;;;;;;;17.46;68.13;101052.59;10403711;28;20045;-68
2023/09/02 20:39:49;;;;;;;3.08;2.10;;;;;;;17.48;67.84;101047.56;10405011;28;20420;-68
2023/09/02 20:44:52;;;;;;;3.47;1.90;;;;;;;17.49;68.75;101052.78;10405714;28;20050;-68
2023/09/02 20:49:54;;;;;;;2.20;1.70;;;;;;;17.66;67.72;101045.69;10404515;28;20034;-68
2023/09/02 20:54:57;;;;;;;2.83;2.25;;;;;;;17.50;67.75;101056.38;10404304;28;20041;-68
2023/09/02 20:59:59;;;;;;;4.57;1.77;;;;;;;17.44;68.22;101052.09;10403845;28;20436;-68
2023/09/02 21:05:01;;;;;;;2.88;1.83;;;;;;;17.12;69.70;101045.69;10406036;28;20056;-68
2023/09/02 21:10:04;;;;;;;3.20;1.83;;;;;;;17.26;68.75;101047.59;10404066;28;20444;-68
2023/09/02 21:15:06;;;;;;;3.47;2.10;;;;;;;17.11;69.55;101046.84;10404615;28;20049;-68
2023/09/02 21:20:09;;;;;;;2.45;1.83;;;;;;;17.34;69.17;101039.31;10403458;28;20045;-67
2023/09/02 21:25:11;;;;;;;2.90;2.03;;;;;;;17.66;68.12;101045.69;10403961;28;20057;-67
2023/09/02 21:30:14;;;;;;;3.60;1.83;;;;;;;17.63;67.85;101049.13;10402588;28;20038;-67
2023/09/02 21:35:16;;;;;;;3.67;2.50;;;;;;;17.02;69.27;101040.41;10433645;28;20044;-67
2023/09/02 21:40:19;;;;;;;2.88;2.47;;;;;;;16.94;70.85;101041.16;10443414;28;20488;-67
2023/09/02 21:45:22;;;;;;;8.02;3.15;;;;;;;16.96;70.88;101038.88;10444202;28;20053;-67
2023/09/02 21:50:26;;;;;;;5.10;3.30;;;;;;;16.94;71.04;101041.16;10442036;28;20153;-67
2023/09/02 21:55:29;;;;;;;6.55;3.65;;;;;;;16.67;72.42;101046.81;10443412;28;20033;-68
2023/09/02 22:00:31;;;;;;;4.93;3.40;;;;;;;16.47;73.32;101035.00;10443076;28;20424;-68
2023/09/02 22:05:34;;;;;;;8.63;4.75;;;;;;;16.58;73.31;101044.72;10443777;28;20041;-68
2023/09/02 22:10:36;;;;;;;7.53;4.03;;;;;;;16.66;73.06;101040.41;10441993;28;20045;-68
2023/09/02 22:15:38;;;;;;;6.30;3.67;;;;;;;16.80;72.75;101037.59;10443072;28;20052;-68
2023/09/02 22:20:40;;;;;;;4.72;3.42;;;;;;;17.03;72.11;101028.19;10442672;28;20507;-68
2023/09/02 22:25:42;;;;;;;6.40;3.30;;;;;;;17.24;71.21;101041.53;10443544;28;20243;-68
2023/09/02 22:30:45;;;;;;;5.65;3.70;;;;;;;17.11;70.98;101043.25;10443024;28;20385;-68
2023/09/02 22:35:50;;;;;;;5.00;3.30;;;;;;;16.99;71.61;101037.44;10443428;28;20045;-67
2023/09/02 22:40:53;;;;;;;5.47;3.05;;;;;;;16.80;72.81;101045.91;10442660;28;20045;-67
2023/09/02 22:45:56;;;;;;;4.75;2.72;;;;;;;17.12;71.82;101045.69;10435643;28;20052;-67
2023/09/02 22:50:58;;;;;;;5.25;3.38;;;;;;;17.05;71.71;101047.28;10454488;28;20044;-68
2023/09/02 22:56:10;;;;;;;7.40;3.28;;;;;;;16.94;72.32;101049.47;10449521;28;20037;-75
2023/09/02 23:01:13;;;;;;;4.57;3.22;;;;;;;17.07;71.81;101047.78;10448630;28;20038;-72
2023/09/02 23:06:16;;;;;;;5.93;3.35;;;;;;;17.16;71.18;101038.38;10422540;28;20522;-73
2023/09/02 23:11:18;;;;;;;4.78;2.78;;;;;;;17.04;72.12;101034.56;10430313;28;20499;-74
2023/09/02 23:16:20;;;;;;;4.18;3.22;;;;;;;17.04;71.77;101035.38;10436339;28;20030;-68